Rechercher aéroport 
image banner adimage banner adimage banner ad
image banner ad

CA01 - Burney Sheriff's Station

Situé à Burney, United States

ICAO - CA01, IATA -

Données fournies par Airmate  

Information générale

Coordonnées: N40°53'6" W121°40'10"
Élévation : 3127 feet MSL.
Variation magnétique : 17° East
Voir autres Aéroports à California

Données opérationnelles

Special qualification required
Heure actuelle UTC:
Heure actuelle locale:
Météo à : KRDD - Redding Muni ( 67 km )
METAR: KRDD 262253Z 15013KT 10SM FU CLR 38/06 A2976 RMK AO2 SLP072 T03780056
TAF: KRDD 261720Z 2618/2718 VRB03KT P6SM SCT200 FM262300 18010KT P6SM SCT150 BKN250 FM270500 VRB04KT P6SM BKN150 FM271200 25003KT P6SM VCSH OVC100
Voir NOTAMs / SUP AIP / TFR affectant cet aéroport [VIEW]
Fréquences de communication: [VIEW]

Pistes:

Coordonnées de l'aéroport

Adresse: Burney United States

Vue satellite de CA01